Time;durP1;ratioP1;P1;durP2;ratioP2;P2;SDS_P1;SDS_P2;PMS_P1;PMS_P2;Temp;Humidity;BMP_temperature;BMP_pressure;BME280_temperature;BME280_humidity;BME280_pressure;Samples;Min_cycle;Max_cycle;Signal;HPM_P1;HPM_P2
2021/09/06 00:02:00;;;;;;;6.30;5.70;;;13.80;99.90;;;;;;485142;245;28607;-71
2021/09/06 00:04:01;;;;;;;5.57;5.07;;;13.80;99.90;;;;;;485126;245;28438;-70
2021/09/06 00:06:03;;;;;;;6.10;5.23;;;13.80;99.90;;;;;;485160;245;28536;-70
2021/09/06 00:08:04;;;;;;;6.30;5.70;;;13.80;99.90;;;;;;485148;245;28340;-70
2021/09/06 00:10:05;;;;;;;5.37;4.80;;;13.80;99.90;;;;;;485133;245;28211;-69
2021/09/06 00:12:08;;;;;;;6.47;5.80;;;13.80;99.90;;;;;;485149;245;29034;-70
2021/09/06 00:14:08;;;;;;;7.20;5.83;;;13.80;99.90;;;;;;485091;245;29789;-70
2021/09/06 00:16:09;;;;;;;5.40;4.90;;;13.80;99.90;;;;;;485169;245;28909;-70
2021/09/06 00:18:10;;;;;;;6.60;5.40;;;13.80;99.90;;;;;;485136;245;28991;-70
2021/09/06 00:20:11;;;;;;;5.80;5.20;;;13.80;99.90;;;;;;485128;245;28498;-69
2021/09/06 00:22:13;;;;;;;7.17;5.77;;;13.90;99.90;;;;;;485134;245;28382;-70
2021/09/06 00:24:14;;;;;;;7.40;5.37;;;13.90;99.90;;;;;;485147;245;28295;-70
2021/09/06 00:26:15;;;;;;;6.37;5.70;;;13.90;99.90;;;;;;485138;245;28438;-70
2021/09/06 00:28:16;;;;;;;6.10;5.13;;;13.90;99.90;;;;;;485116;245;28689;-71
2021/09/06 00:30:18;;;;;;;7.03;5.20;;;14.00;99.90;;;;;;485086;245;28311;-70
2021/09/06 00:32:19;;;;;;;6.80;5.70;;;14.00;99.90;;;;;;485062;245;28253;-70
2021/09/06 00:34:20;;;;;;;5.60;5.10;;;14.00;99.90;;;;;;485137;245;28715;-70
2021/09/06 00:36:21;;;;;;;6.00;5.40;;;14.00;99.90;;;;;;485148;245;28437;-70
2021/09/06 00:38:23;;;;;;;6.93;5.73;;;14.00;99.90;;;;;;485128;245;29097;-70
2021/09/06 00:40:24;;;;;;;7.83;5.80;;;14.00;99.90;;;;;;485074;245;29429;-70
2021/09/06 00:42:25;;;;;;;6.33;5.73;;;14.00;99.90;;;;;;485049;245;29058;-70
2021/09/06 00:44:26;;;;;;;7.70;5.70;;;14.00;99.90;;;;;;485001;245;28568;-70
2021/09/06 00:46:28;;;;;;;5.63;5.13;;;14.00;99.90;;;;;;485123;245;28541;-70
2021/09/06 00:48:30;;;;;;;7.03;6.33;;;13.90;99.90;;;;;;485126;245;28341;-70
2021/09/06 00:50:30;;;;;;;5.63;5.07;;;13.90;99.90;;;;;;485039;245;28479;-70
2021/09/06 00:52:31;;;;;;;7.50;6.23;;;13.90;99.90;;;;;;485106;245;28590;-70
2021/09/06 00:54:33;;;;;;;6.90;6.20;;;13.90;99.90;;;;;;485153;245;28371;-70
2021/09/06 00:56:34;;;;;;;6.87;5.33;;;13.80;99.90;;;;;;485138;245;29347;-72
2021/09/06 00:58:35;;;;;;;5.90;5.30;;;13.80;99.90;;;;;;485114;245;29059;-72
2021/09/06 01:00:36;;;;;;;6.27;5.50;;;13.80;99.90;;;;;;485109;245;28894;-72
2021/09/06 01:02:38;;;;;;;7.93;5.30;;;13.70;99.90;;;;;;485127;245;28445;-72
2021/09/06 01:04:39;;;;;;;6.07;5.30;;;13.70;99.90;;;;;;485163;245;28564;-69
2021/09/06 01:06:40;;;;;;;6.20;5.60;;;13.70;99.90;;;;;;485129;245;28362;-72
2021/09/06 01:08:41;;;;;;;6.97;6.27;;;13.70;99.90;;;;;;485133;245;28231;-71
2021/09/06 01:10:43;;;;;;;5.43;4.93;;;13.70;99.90;;;;;;485128;245;28424;-72
2021/09/06 01:12:44;;;;;;;5.40;4.90;;;13.60;99.90;;;;;;485110;245;28226;-70
2021/09/06 01:14:45;;;;;;;6.17;5.10;;;13.60;99.90;;;;;;485160;245;28261;-71
2021/09/06 01:16:46;;;;;;;6.50;5.37;;;13.60;99.90;;;;;;485125;245;28452;-70
2021/09/06 01:18:48;;;;;;;6.97;5.20;;;13.60;99.90;;;;;;485131;245;28922;-69
2021/09/06 01:20:50;;;;;;;6.30;5.10;;;;;;;;;;485110;245;28772;-71
2021/09/06 01:22:51;;;;;;;8.67;5.63;;;13.60;99.90;;;;;;485141;245;26531;-70
2021/09/06 01:24:53;;;;;;;6.97;6.27;;;13.60;99.90;;;;;;485165;245;28442;-70
2021/09/06 01:26:54;;;;;;;6.30;5.50;;;13.60;99.90;;;;;;485135;245;28383;-71
2021/09/06 01:28:55;;;;;;;6.10;5.47;;;13.50;99.90;;;;;;485121;245;28207;-71
2021/09/06 01:30:56;;;;;;;5.53;4.93;;;13.50;99.90;;;;;;485154;245;28208;-71
2021/09/06 01:32:59;;;;;;;6.90;5.53;;;;;;;;;;485133;245;29137;-70
2021/09/06 01:35:00;;;;;;;5.97;5.30;;;13.50;99.90;;;;;;485139;245;26909;-70
2021/09/06 01:37:01;;;;;;;6.40;5.37;;;13.50;99.90;;;;;;485102;245;28262;-71
2021/09/06 01:39:04;;;;;;;6.00;5.40;;;;;;;;;;485154;245;28864;-70
2021/09/06 01:41:05;;;;;;;6.97;5.90;;;13.50;99.90;;;;;;485128;245;26607;-70
2021/09/06 01:43:06;;;;;;;6.27;5.67;;;13.50;99.90;;;;;;485095;245;28216;-70
2021/09/06 01:45:08;;;;;;;7.20;5.70;;;13.50;99.90;;;;;;485121;245;28300;-70
2021/09/06 01:47:09;;;;;;;5.97;5.37;;;13.50;99.90;;;;;;485154;245;28275;-70
2021/09/06 01:49:10;;;;;;;5.70;5.10;;;13.50;99.90;;;;;;485134;245;28399;-70
2021/09/06 01:51:11;;;;;;;5.83;4.90;;;13.50;99.90;;;;;;485125;245;28890;-70
2021/09/06 01:53:13;;;;;;;7.67;5.17;;;13.40;99.90;;;;;;485110;245;28392;-70
2021/09/06 01:55:14;;;;;;;5.83;5.20;;;13.40;99.90;;;;;;485122;245;28304;-70
2021/09/06 01:57:15;;;;;;;5.43;4.90;;;13.50;99.90;;;;;;485117;245;28303;-70
2021/09/06 01:59:16;;;;;;;5.70;5.10;;;13.40;99.90;;;;;;485124;245;28764;-70
2021/09/06 02:01:18;;;;;;;8.23;6.00;;;13.40;99.90;;;;;;485136;245;28685;-70
2021/09/06 02:03:19;;;;;;;5.83;5.23;;;13.40;99.90;;;;;;485115;245;28842;-71
2021/09/06 02:05:20;;;;;;;6.53;5.40;;;13.40;99.90;;;;;;485118;245;28269;-71
2021/09/06 02:07:21;;;;;;;6.23;5.60;;;13.40;99.90;;;;;;485139;245;28270;-71
2021/09/06 02:09:23;;;;;;;5.70;5.00;;;13.40;99.90;;;;;;485125;245;28350;-70
2021/09/06 02:11:26;;;;;;;7.03;5.50;;;13.40;99.90;;;;;;485043;245;28307;-71
2021/09/06 02:13:25;;;;;;;6.00;5.40;;;13.40;99.90;;;;;;484871;245;28387;-70
2021/09/06 02:15:26;;;;;;;5.73;5.07;;;13.30;99.90;;;;;;484960;245;28318;-70
2021/09/06 02:17:28;;;;;;;6.40;5.80;;;13.30;99.90;;;;;;484897;245;28230;-71
2021/09/06 02:19:29;;;;;;;7.47;6.10;;;13.30;99.90;;;;;;484985;245;28242;-70
2021/09/06 02:21:31;;;;;;;6.03;5.43;;;;;;;;;;485102;245;28450;-70
2021/09/06 02:23:34;;;;;;;6.07;5.47;;;;;;;;;;485149;245;26997;-70
2021/09/06 02:25:35;;;;;;;6.53;5.53;;;13.20;99.90;;;;;;485138;245;27123;-70
2021/09/06 02:27:36;;;;;;;5.97;5.20;;;13.20;99.90;;;;;;485120;245;28845;-70
2021/09/06 02:29:38;;;;;;;6.00;5.37;;;13.20;99.90;;;;;;485140;245;28866;-70
2021/09/06 02:31:39;;;;;;;6.30;5.27;;;13.20;99.90;;;;;;485131;245;28535;-70
2021/09/06 02:33:40;;;;;;;6.07;5.47;;;13.20;99.90;;;;;;485140;245;28900;-70
2021/09/06 02:35:41;;;;;;;6.30;5.50;;;13.10;99.90;;;;;;485142;245;28361;-71
2021/09/06 02:37:43;;;;;;;5.90;5.30;;;13.10;99.90;;;;;;485125;245;28214;-70
2021/09/06 02:39:44;;;;;;;6.30;5.70;;;13.10;99.90;;;;;;485143;245;28215;-70
2021/09/06 02:41:45;;;;;;;5.90;5.20;;;13.10;99.90;;;;;;485126;245;28834;-70
2021/09/06 02:43:46;;;;;;;5.73;4.93;;;13.00;99.90;;;;;;485140;245;28774;-70
2021/09/06 02:45:48;;;;;;;6.07;5.50;;;13.00;99.90;;;;;;485145;245;28899;-70
2021/09/06 02:47:49;;;;;;;6.30;5.50;;;13.00;99.90;;;;;;485085;245;30593;-70
2021/09/06 02:49:50;;;;;;;6.03;5.17;;;12.90;99.90;;;;;;485124;245;28296;-70
2021/09/06 02:51:51;;;;;;;6.00;5.03;;;12.90;99.90;;;;;;485144;245;28476;-71
2021/09/06 02:53:53;;;;;;;6.30;5.20;;;12.90;99.90;;;;;;485096;245;28353;-70
2021/09/06 02:55:54;;;;;;;4.90;4.50;;;12.90;99.90;;;;;;485097;245;28532;-71
2021/09/06 02:57:55;;;;;;;5.37;4.80;;;12.90;99.90;;;;;;485128;245;28395;-70
2021/09/06 02:59:56;;;;;;;6.07;5.47;;;12.90;99.90;;;;;;485156;245;28304;-70
2021/09/06 03:01:58;;;;;;;5.97;5.37;;;12.90;99.90;;;;;;485138;245;28342;-70
2021/09/06 03:03:59;;;;;;;6.50;5.30;;;12.90;99.90;;;;;;485108;245;28338;-70
2021/09/06 03:06:00;;;;;;;6.73;6.00;;;12.90;99.90;;;;;;485103;245;28444;-70
2021/09/06 03:08:01;;;;;;;6.00;5.33;;;12.80;99.90;;;;;;485111;245;29536;-70
2021/09/06 03:10:03;;;;;;;6.37;5.27;;;12.80;99.90;;;;;;485126;245;28792;-69
2021/09/06 03:12:04;;;;;;;6.53;5.70;;;12.80;99.90;;;;;;485120;245;29460;-70
2021/09/06 03:14:05;;;;;;;6.87;6.10;;;12.80;99.90;;;;;;485130;245;28553;-70
2021/09/06 03:16:06;;;;;;;6.33;5.30;;;12.80;99.90;;;;;;485093;245;28457;-70
2021/09/06 03:18:08;;;;;;;5.70;5.20;;;12.70;99.90;;;;;;485166;245;28894;-70
2021/09/06 03:20:09;;;;;;;6.77;5.70;;;12.70;99.90;;;;;;485173;245;28263;-70
2021/09/06 03:22:10;;;;;;;6.10;5.50;;;12.80;99.90;;;;;;485157;245;28891;-70
2021/09/06 03:24:11;;;;;;;6.00;5.10;;;12.70;99.90;;;;;;485130;245;28676;-70
2021/09/06 03:26:14;;;;;;;5.83;5.23;;;12.70;99.90;;;;;;485115;245;28561;-70
2021/09/06 03:28:14;;;;;;;6.10;4.97;;;12.80;99.90;;;;;;485100;245;29048;-70
2021/09/06 03:30:15;;;;;;;6.00;5.13;;;12.70;99.90;;;;;;485161;245;28901;-70
2021/09/06 03:32:16;;;;;;;5.70;5.20;;;12.70;99.90;;;;;;485154;245;28301;-70
2021/09/06 03:34:18;;;;;;;5.50;4.90;;;12.60;99.90;;;;;;485138;245;28331;-70
2021/09/06 03:36:20;;;;;;;5.97;5.37;;;12.60;99.90;;;;;;485129;245;28615;-70
2021/09/06 03:38:20;;;;;;;6.60;5.50;;;12.60;99.90;;;;;;485162;245;28416;-70
2021/09/06 03:40:21;;;;;;;5.83;5.07;;;12.70;99.90;;;;;;485136;245;28607;-70
2021/09/06 03:42:23;;;;;;;5.50;5.00;;;12.60;99.90;;;;;;485110;245;28166;-71
2021/09/06 03:44:24;;;;;;;6.57;5.40;;;12.60;99.90;;;;;;485157;245;28084;-70
2021/09/06 03:46:25;;;;;;;6.37;5.50;;;12.60;99.90;;;;;;485134;245;28867;-70
2021/09/06 03:48:26;;;;;;;6.70;5.93;;;12.60;99.90;;;;;;485155;245;28593;-70
2021/09/06 03:50:28;;;;;;;7.30;5.67;;;12.60;99.90;;;;;;485123;245;28745;-71
2021/09/06 03:52:29;;;;;;;6.87;5.83;;;12.60;99.90;;;;;;485127;245;28949;-70
2021/09/06 03:54:30;;;;;;;7.30;5.57;;;12.60;99.90;;;;;;485112;245;28647;-70
2021/09/06 03:56:31;;;;;;;6.30;5.70;;;12.60;99.90;;;;;;485147;245;28576;-69
2021/09/06 03:58:33;;;;;;;6.40;5.80;;;12.60;99.90;;;;;;485120;245;28208;-70
2021/09/06 04:00:34;;;;;;;5.90;5.30;;;12.60;99.90;;;;;;485129;245;28410;-70
2021/09/06 04:02:35;;;;;;;6.80;5.50;;;12.50;99.90;;;;;;485146;245;28301;-70
2021/09/06 04:04:36;;;;;;;5.90;5.33;;;12.50;99.90;;;;;;485112;245;28506;-70
2021/09/06 04:06:38;;;;;;;6.40;5.60;;;12.50;99.90;;;;;;485138;245;28604;-70
2021/09/06 04:08:39;;;;;;;6.70;5.40;;;12.50;99.90;;;;;;485119;245;28994;-70
2021/09/06 04:10:40;;;;;;;5.23;4.73;;;12.40;99.90;;;;;;485144;245;28202;-70
2021/09/06 04:12:41;;;;;;;7.63;5.93;;;12.40;99.90;;;;;;485135;245;28466;-70
2021/09/06 04:14:43;;;;;;;6.30;5.40;;;12.40;99.90;;;;;;485161;245;29427;-70
2021/09/06 04:16:44;;;;;;;5.50;4.97;;;12.40;99.90;;;;;;485178;245;28816;-70
2021/09/06 04:18:45;;;;;;;5.63;5.13;;;12.40;99.90;;;;;;485180;245;29036;-70
2021/09/06 04:20:47;;;;;;;6.53;5.60;;;12.40;99.90;;;;;;485147;245;28337;-70
2021/09/06 04:22:48;;;;;;;6.47;5.53;;;12.40;99.90;;;;;;485112;245;28380;-70
2021/09/06 04:24:49;;;;;;;5.43;4.90;;;12.40;99.90;;;;;;485125;245;28571;-71
2021/09/06 04:26:50;;;;;;;5.43;4.90;;;12.40;99.90;;;;;;485154;245;28253;-70
2021/09/06 04:28:51;;;;;;;6.63;5.53;;;12.30;99.90;;;;;;485119;245;28588;-70
2021/09/06 04:30:53;;;;;;;8.83;5.70;;;12.40;99.90;;;;;;485175;245;28368;-69
2021/09/06 04:32:54;;;;;;;7.07;6.07;;;12.30;99.90;;;;;;485102;245;28381;-69
2021/09/06 04:34:55;;;;;;;5.83;5.23;;;12.30;99.90;;;;;;485117;245;28344;-70
2021/09/06 04:36:56;;;;;;;7.00;6.23;;;12.30;99.90;;;;;;485157;245;28928;-71
2021/09/06 04:38:58;;;;;;;6.43;5.50;;;12.30;99.90;;;;;;485140;245;28822;-69
2021/09/06 04:40:59;;;;;;;5.10;4.60;;;12.30;99.90;;;;;;485126;245;28847;-69
2021/09/06 04:43:00;;;;;;;6.60;5.90;;;12.30;99.90;;;;;;485110;245;28605;-69
2021/09/06 04:45:01;;;;;;;6.60;5.57;;;12.30;99.90;;;;;;485133;245;28387;-69
2021/09/06 04:47:03;;;;;;;5.17;4.70;;;12.30;99.90;;;;;;485161;245;28336;-69
2021/09/06 04:49:04;;;;;;;7.17;5.87;;;12.20;99.90;;;;;;485146;245;28606;-69
2021/09/06 04:51:05;;;;;;;8.00;5.90;;;12.20;99.90;;;;;;485130;245;28234;-69
2021/09/06 04:53:06;;;;;;;6.00;5.10;;;12.20;99.90;;;;;;485131;245;28374;-69
2021/09/06 04:55:08;;;;;;;6.17;5.57;;;12.20;99.90;;;;;;485175;245;28207;-69
2021/09/06 04:57:09;;;;;;;7.73;5.27;;;12.20;99.90;;;;;;485154;245;28515;-69
2021/09/06 04:59:10;;;;;;;6.63;5.80;;;12.20;99.90;;;;;;485121;245;28896;-72
2021/09/06 05:01:11;;;;;;;6.23;5.17;;;12.20;99.90;;;;;;485119;245;29079;-73
2021/09/06 05:03:13;;;;;;;5.90;5.30;;;12.20;99.90;;;;;;485096;245;28686;-71
2021/09/06 05:05:14;;;;;;;6.90;5.70;;;12.20;99.90;;;;;;485136;245;28602;-69
2021/09/06 05:07:15;;;;;;;5.60;5.10;;;12.20;99.90;;;;;;485133;245;28540;-69
2021/09/06 05:09:16;;;;;;;6.03;5.43;;;12.30;99.90;;;;;;485117;245;28580;-69
2021/09/06 05:11:18;;;;;;;6.53;5.83;;;12.30;99.90;;;;;;485119;245;28222;-70
2021/09/06 05:13:19;;;;;;;6.30;5.70;;;12.20;99.90;;;;;;485152;245;28429;-70
2021/09/06 05:15:20;;;;;;;6.73;6.07;;;12.20;99.90;;;;;;485140;245;28465;-70
2021/09/06 05:17:21;;;;;;;6.73;5.60;;;12.20;99.90;;;;;;485142;245;28371;-69
2021/09/06 05:19:23;;;;;;;5.80;5.20;;;12.20;99.90;;;;;;485141;245;28356;-70
2021/09/06 05:21:24;;;;;;;6.33;5.73;;;12.20;99.90;;;;;;485096;245;28444;-70
2021/09/06 05:23:25;;;;;;;6.83;5.83;;;12.20;99.90;;;;;;485161;245;28637;-69
2021/09/06 05:25:26;;;;;;;7.17;6.07;;;12.20;99.90;;;;;;485143;245;28955;-69
2021/09/06 05:27:28;;;;;;;7.90;5.87;;;12.30;99.90;;;;;;485129;245;29079;-70
2021/09/06 05:29:29;;;;;;;6.00;5.40;;;12.20;99.90;;;;;;485123;245;28811;-69
2021/09/06 05:31:30;;;;;;;9.70;5.67;;;12.20;99.90;;;;;;485130;245;28650;-70
2021/09/06 05:33:32;;;;;;;8.53;5.77;;;12.30;99.90;;;;;;485144;245;28133;-70
2021/09/06 05:35:33;;;;;;;6.03;5.40;;;12.40;99.90;;;;;;485136;245;28451;-70
2021/09/06 05:37:34;;;;;;;5.23;4.80;;;12.40;99.90;;;;;;485127;245;28187;-70
2021/09/06 05:39:35;;;;;;;7.67;5.33;;;12.40;99.90;;;;;;485123;245;28355;-70
2021/09/06 05:41:36;;;;;;;8.90;6.10;;;12.40;99.90;;;;;;485125;245;28541;-71
2021/09/06 05:43:38;;;;;;;8.60;5.80;;;12.40;99.90;;;;;;485138;245;28640;-71
2021/09/06 05:45:39;;;;;;;6.33;5.27;;;12.40;99.90;;;;;;485141;245;28632;-70
2021/09/06 05:47:40;;;;;;;15.23;5.57;;;12.50;99.90;;;;;;485144;245;28270;-70
2021/09/06 05:49:42;;;;;;;5.60;5.10;;;12.50;99.90;;;;;;485148;245;28799;-70
2021/09/06 05:51:43;;;;;;;6.17;5.57;;;12.50;99.90;;;;;;485141;245;29000;-70
2021/09/06 05:53:44;;;;;;;6.67;5.50;;;12.60;99.90;;;;;;485156;245;29012;-70
2021/09/06 05:55:45;;;;;;;6.33;5.63;;;12.60;99.90;;;;;;485128;245;28141;-70
2021/09/06 05:57:48;;;;;;;6.33;4.83;;;;;;;;;;485117;245;28357;-70
2021/09/06 05:59:49;;;;;;;6.20;5.53;;;12.70;99.90;;;;;;485103;245;27684;-70
2021/09/06 06:01:50;;;;;;;5.67;5.10;;;12.70;99.90;;;;;;485112;245;29762;-70
2021/09/06 06:03:51;;;;;;;6.00;5.50;;;12.80;99.90;;;;;;485136;245;28873;-71
2021/09/06 06:05:53;;;;;;;6.70;5.30;;;12.80;99.90;;;;;;485140;245;28620;-71
2021/09/06 06:07:54;;;;;;;5.40;4.90;;;12.80;99.90;;;;;;485158;245;28468;-70
2021/09/06 06:09:55;;;;;;;5.20;4.70;;;12.90;99.90;;;;;;485149;245;28941;-69
2021/09/06 06:11:56;;;;;;;6.23;5.63;;;12.90;99.90;;;;;;485126;245;28355;-70
2021/09/06 06:13:58;;;;;;;5.97;5.37;;;13.00;99.90;;;;;;485154;245;28584;-70
2021/09/06 06:15:59;;;;;;;6.20;5.60;;;13.00;99.90;;;;;;485123;245;28554;-70
2021/09/06 06:18:00;;;;;;;8.10;6.53;;;13.10;99.90;;;;;;485095;245;28320;-71
2021/09/06 06:20:01;;;;;;;6.23;5.63;;;13.10;99.90;;;;;;485078;245;28247;-71
2021/09/06 06:22:03;;;;;;;6.20;5.53;;;13.20;99.90;;;;;;485113;245;28875;-70
2021/09/06 06:24:04;;;;;;;6.10;5.50;;;13.20;99.90;;;;;;485138;245;28707;-70
2021/09/06 06:26:05;;;;;;;7.40;5.47;;;13.30;99.90;;;;;;485148;245;28833;-70
2021/09/06 06:28:08;;;;;;;6.07;5.47;;;13.30;99.90;;;;;;485106;245;28717;-70
2021/09/06 06:30:08;;;;;;;6.60;5.47;;;13.40;99.90;;;;;;485074;245;28221;-70
2021/09/06 06:32:10;;;;;;;7.53;5.90;;;;;;;;;;485137;245;28222;-70
2021/09/06 06:34:11;;;;;;;7.73;5.23;;;13.40;99.90;;;;;;485114;245;26558;-70
2021/09/06 06:36:13;;;;;;;5.93;5.30;;;13.50;99.90;;;;;;485102;245;28726;-71
2021/09/06 06:38:15;;;;;;;5.13;4.63;;;;;;;;;;485094;245;28997;-71
2021/09/06 06:40:16;;;;;;;5.43;4.80;;;13.50;99.90;;;;;;492202;241;26489;-69
2021/09/06 06:42:18;;;;;;;5.33;4.80;;;13.60;99.90;;;;;;485144;245;28279;-70
2021/09/06 06:44:19;;;;;;;6.03;5.23;;;13.60;99.90;;;;;;484507;245;28362;-72
2021/09/06 06:46:20;;;;;;;7.93;5.60;;;13.70;99.90;;;;;;485185;245;28255;-72
2021/09/06 06:48:21;;;;;;;5.50;4.90;;;13.70;99.90;;;;;;484453;245;29288;-72
2021/09/06 06:50:24;;;;;;;6.27;5.30;;;13.80;99.90;;;;;;484899;245;29512;-71
2021/09/06 06:52:24;;;;;;;5.87;5.27;;;13.80;99.90;;;;;;483362;244;28654;-72
2021/09/06 06:54:25;;;;;;;7.10;5.43;;;13.90;99.90;;;;;;483930;240;28193;-72
2021/09/06 06:56:26;;;;;;;6.00;5.10;;;14.00;99.90;;;;;;490447;241;28157;-72
2021/09/06 06:58:29;;;;;;;5.80;5.10;;;14.00;99.90;;;;;;493242;241;28139;-69
2021/09/06 07:00:29;;;;;;;6.40;5.73;;;14.10;99.90;;;;;;493160;241;28304;-69
2021/09/06 07:02:31;;;;;;;6.03;5.37;;;;;;;;;;493244;241;28722;-69
2021/09/06 07:04:33;;;;;;;5.83;5.23;;;14.20;99.90;;;;;;493211;241;26734;-69
2021/09/06 07:06:34;;;;;;;5.17;4.73;;;14.30;99.90;;;;;;493268;241;28259;-69
2021/09/06 07:08:35;;;;;;;5.87;5.03;;;14.50;99.90;;;;;;493240;241;28332;-69
2021/09/06 07:10:36;;;;;;;5.97;5.37;;;14.50;99.90;;;;;;493234;241;28705;-69
2021/09/06 07:12:38;;;;;;;9.00;5.10;;;14.60;99.90;;;;;;493231;241;28749;-69
2021/09/06 07:14:39;;;;;;;5.37;4.87;;;14.70;99.90;;;;;;493218;241;28111;-69
2021/09/06 07:16:40;;;;;;;5.43;4.93;;;14.70;99.90;;;;;;493239;241;28549;-69
2021/09/06 07:18:41;;;;;;;5.43;4.93;;;14.80;99.90;;;;;;493246;241;28784;-69
2021/09/06 07:20:43;;;;;;;5.40;4.90;;;14.90;99.90;;;;;;493209;241;28306;-70
2021/09/06 07:22:44;;;;;;;6.20;5.17;;;15.00;99.90;;;;;;493215;241;29017;-69
2021/09/06 07:24:45;;;;;;;5.83;5.23;;;15.00;99.90;;;;;;493231;241;29451;-69
2021/09/06 07:26:46;;;;;;;5.20;4.70;;;15.10;99.90;;;;;;493239;241;29161;-69
2021/09/06 07:28:48;;;;;;;5.27;4.80;;;15.20;99.90;;;;;;493232;241;28773;-69
2021/09/06 07:30:49;;;;;;;5.40;4.90;;;15.20;99.90;;;;;;493242;241;28709;-71
2021/09/06 07:32:51;;;;;;;5.60;5.10;;;15.30;99.90;;;;;;493208;241;28836;-72
2021/09/06 07:34:51;;;;;;;5.10;4.70;;;15.40;99.90;;;;;;492985;241;28748;-70
2021/09/06 07:36:53;;;;;;;6.13;5.53;;;15.50;99.90;;;;;;493243;241;28709;-69
2021/09/06 07:38:54;;;;;;;5.97;5.37;;;15.60;99.90;;;;;;493255;241;28834;-73
2021/09/06 07:40:55;;;;;;;5.80;5.20;;;15.70;99.90;;;;;;493251;241;28710;-72
2021/09/06 07:42:56;;;;;;;5.57;4.97;;;15.80;99.90;;;;;;493230;241;28823;-71
2021/09/06 07:44:58;;;;;;;5.93;5.33;;;15.80;99.90;;;;;;493262;241;28744;-72
2021/09/06 07:46:59;;;;;;;6.27;5.67;;;15.90;99.90;;;;;;493265;241;29265;-70
2021/09/06 07:49:00;;;;;;;5.67;5.17;;;16.00;99.90;;;;;;493249;241;29373;-71
2021/09/06 07:51:01;;;;;;;5.53;5.00;;;16.10;99.90;;;;;;493236;241;29219;-72
2021/09/06 07:53:03;;;;;;;6.10;5.50;;;16.20;99.90;;;;;;493257;241;28753;-72
2021/09/06 07:55:04;;;;;;;6.10;5.50;;;16.20;99.90;;;;;;493276;241;28759;-70
2021/09/06 07:57:05;;;;;;;7.90;5.97;;;16.30;99.90;;;;;;493234;241;28706;-70
2021/09/06 07:59:06;;;;;;;7.37;6.50;;;16.60;99.90;;;;;;493221;241;28746;-70
2021/09/06 08:01:08;;;;;;;7.13;6.17;;;16.90;99.90;;;;;;493174;241;28723;-71
2021/09/06 08:03:09;;;;;;;8.70;6.27;;;17.20;99.90;;;;;;493216;241;28754;-72
2021/09/06 08:05:10;;;;;;;6.40;5.70;;;17.60;99.90;;;;;;493267;241;28752;-70
2021/09/06 08:07:11;;;;;;;7.10;6.37;;;18.00;99.90;;;;;;493250;241;28742;-70
2021/09/06 08:09:13;;;;;;;6.23;5.60;;;17.90;99.90;;;;;;493217;241;28762;-70
2021/09/06 08:11:14;;;;;;;6.80;6.20;;;17.90;99.90;;;;;;493224;241;29201;-69
2021/09/06 08:13:15;;;;;;;6.50;5.90;;;17.90;99.90;;;;;;493247;241;29202;-71
2021/09/06 08:15:16;;;;;;;7.53;5.90;;;18.20;99.90;;;;;;493251;241;29234;-72
2021/09/06 08:17:18;;;;;;;5.87;5.37;;;18.50;99.90;;;;;;493252;241;28726;-71
2021/09/06 08:19:19;;;;;;;6.43;5.80;;;18.50;99.90;;;;;;493219;241;28779;-69
2021/09/06 08:21:20;;;;;;;5.60;5.10;;;18.60;99.90;;;;;;493210;241;28854;-69
2021/09/06 08:23:21;;;;;;;6.47;5.73;;;18.60;99.90;;;;;;493255;241;28740;-73
2021/09/06 08:25:23;;;;;;;5.93;5.33;;;18.60;99.90;;;;;;493232;241;28849;-71
2021/09/06 08:27:24;;;;;;;6.83;5.53;;;18.90;99.90;;;;;;493248;241;28713;-69
2021/09/06 08:29:25;;;;;;;6.23;5.50;;;19.20;99.90;;;;;;493230;241;28765;-70
2021/09/06 08:31:29;;;;;;;8.43;5.60;;;19.30;99.90;;;;;;493209;241;28809;-69
2021/09/06 08:33:28;;;;;;;6.03;5.43;;;19.40;99.90;;;;;;493022;241;28773;-68
2021/09/06 08:35:29;;;;;;;7.07;6.03;;;19.70;99.90;;;;;;493237;241;29258;-70
2021/09/06 08:37:30;;;;;;;5.53;5.03;;;19.40;99.90;;;;;;493226;241;29287;-69
2021/09/06 08:39:32;;;;;;;6.50;5.17;;;19.30;99.90;;;;;;493205;241;29341;-70
2021/09/06 08:41:33;;;;;;;7.50;6.20;;;19.40;99.90;;;;;;493242;241;29943;-70
2021/09/06 08:43:34;;;;;;;5.50;4.93;;;19.20;99.90;;;;;;493250;241;28807;-69
2021/09/06 08:45:35;;;;;;;5.90;4.97;;;19.10;99.90;;;;;;493265;241;28764;-70
2021/09/06 08:47:36;;;;;;;6.17;5.47;;;19.30;99.90;;;;;;493213;241;28820;-72
2021/09/06 08:49:38;;;;;;;5.90;4.70;;;19.30;99.90;;;;;;493252;241;28839;-72
2021/09/06 08:51:39;;;;;;;5.20;4.63;;;19.20;99.90;;;;;;493232;241;29101;-72
2021/09/06 08:53:40;;;;;;;7.63;5.47;;;19.20;99.90;;;;;;493132;241;28709;-70
2021/09/06 08:55:42;;;;;;;6.20;5.60;;;20.00;99.90;;;;;;492961;241;28765;-71
2021/09/06 08:57:43;;;;;;;6.27;5.67;;;20.10;99.90;;;;;;493153;241;28728;-71
2021/09/06 08:59:44;;;;;;;5.80;5.07;;;20.20;99.90;;;;;;493228;241;29235;-68
2021/09/06 09:01:48;;;;;;;5.60;5.10;;;20.00;99.90;;;;;;493255;241;29248;-69
2021/09/06 09:03:47;;;;;;;6.20;5.60;;;19.90;99.90;;;;;;493074;241;29148;-70
2021/09/06 09:05:48;;;;;;;5.50;4.97;;;20.30;99.90;;;;;;493240;241;29313;-72
2021/09/06 09:07:49;;;;;;;5.77;5.27;;;20.40;99.90;;;;;;493233;241;28874;-70
2021/09/06 09:09:50;;;;;;;6.77;5.67;;;20.40;99.90;;;;;;493219;241;28795;-69
2021/09/06 09:11:52;;;;;;;6.37;5.63;;;20.40;99.90;;;;;;493294;241;28759;-70
2021/09/06 09:13:53;;;;;;;6.30;5.60;;;20.50;99.90;;;;;;493238;241;28702;-70
2021/09/06 09:15:54;;;;;;;6.37;5.70;;;20.70;99.90;;;;;;493256;241;28739;-70
2021/09/06 09:17:55;;;;;;;6.30;5.70;;;20.80;99.90;;;;;;493267;241;28707;-70
2021/09/06 09:19:57;;;;;;;6.80;5.80;;;20.80;99.90;;;;;;493265;241;28758;-71
2021/09/06 09:21:58;;;;;;;6.43;5.80;;;20.60;99.90;;;;;;493320;241;29268;-71
2021/09/06 09:24:01;;;;;;;6.30;5.30;;;20.70;99.90;;;;;;493300;241;29161;-72
2021/09/06 09:26:00;;;;;;;6.00;5.30;;;21.00;99.90;;;;;;493096;241;28754;-71
2021/09/06 09:28:02;;;;;;;7.90;5.73;;;21.00;99.90;;;;;;493278;241;28754;-71
2021/09/06 09:30:03;;;;;;;6.03;5.50;;;21.20;99.90;;;;;;492600;241;28850;-71
2021/09/06 09:32:04;;;;;;;6.53;5.57;;;21.30;99.90;;;;;;493100;241;28859;-71
2021/09/06 09:34:05;;;;;;;6.20;5.60;;;21.20;99.90;;;;;;493109;241;30224;-71
2021/09/06 09:36:07;;;;;;;5.70;5.10;;;21.30;99.90;;;;;;493116;241;29187;-71
2021/09/06 09:38:08;;;;;;;6.13;5.57;;;21.40;99.90;;;;;;492938;241;29713;-71
2021/09/06 09:40:09;;;;;;;7.23;5.53;;;21.30;99.90;;;;;;493060;241;29198;-71
2021/09/06 09:42:10;;;;;;;7.47;5.90;;;21.20;99.90;;;;;;492952;241;28785;-71
2021/09/06 09:44:12;;;;;;;7.23;5.63;;;21.20;99.90;;;;;;493043;241;28826;-71
2021/09/06 09:46:13;;;;;;;7.20;5.33;;;21.30;99.90;;;;;;492917;241;28742;-71
2021/09/06 09:48:14;;;;;;;5.63;5.13;;;21.30;99.90;;;;;;493064;241;28726;-70
2021/09/06 09:50:15;;;;;;;5.07;4.60;;;21.10;99.90;;;;;;493049;241;28732;-71
2021/09/06 09:52:17;;;;;;;6.03;5.10;;;20.80;99.90;;;;;;492987;241;28768;-71
2021/09/06 09:54:18;;;;;;;6.03;5.43;;;20.90;99.90;;;;;;492988;241;28733;-71
2021/09/06 09:56:19;;;;;;;6.40;5.80;;;21.30;99.90;;;;;;493065;241;28736;-71
2021/09/06 09:58:20;;;;;;;6.87;5.70;;;21.60;99.90;;;;;;493034;241;29213;-71
2021/09/06 10:00:22;;;;;;;6.77;5.20;;;21.40;99.90;;;;;;493113;241;28758;-71
2021/09/06 10:02:23;;;;;;;5.73;5.17;;;21.20;99.90;;;;;;493128;241;28827;-71
2021/09/06 10:04:24;;;;;;;6.00;5.30;;;21.20;99.90;;;;;;493064;241;29088;-71
2021/09/06 10:06:25;;;;;;;5.93;4.53;;;21.20;99.90;;;;;;492998;241;28798;-71
2021/09/06 10:08:27;;;;;;;5.20;4.70;;;21.20;99.90;;;;;;492946;241;28745;-71
2021/09/06 10:10:28;;;;;;;5.30;4.67;;;21.40;99.90;;;;;;493013;241;28716;-71
2021/09/06 10:12:30;;;;;;;5.77;4.70;;;21.40;99.90;;;;;;493039;241;29209;-71
2021/09/06 10:14:30;;;;;;;5.50;5.00;;;21.80;99.90;;;;;;493029;241;29322;-71
2021/09/06 10:16:32;;;;;;;5.70;5.10;;;22.00;99.90;;;;;;492980;241;29304;-71
2021/09/06 10:18:33;;;;;;;6.07;5.40;;;22.00;99.90;;;;;;492942;241;29186;-71
2021/09/06 10:20:34;;;;;;;6.73;5.47;;;22.10;99.90;;;;;;493114;241;28777;-71
2021/09/06 10:22:35;;;;;;;5.80;5.00;;;22.00;99.90;;;;;;493077;241;28758;-72
2021/09/06 10:24:37;;;;;;;4.83;4.43;;;21.90;99.90;;;;;;493013;241;28756;-71
2021/09/06 10:26:38;;;;;;;5.70;4.90;;;22.00;99.90;;;;;;493091;241;28737;-71
2021/09/06 10:28:39;;;;;;;6.10;5.27;;;21.90;99.90;;;;;;493162;241;28748;-72
2021/09/06 10:30:41;;;;;;;6.03;5.43;;;21.90;99.90;;;;;;492922;241;28801;-72
2021/09/06 10:32:42;;;;;;;5.70;4.47;;;22.30;99.90;;;;;;493002;241;28843;-72
2021/09/06 10:34:43;;;;;;;5.17;4.67;;;22.30;99.90;;;;;;493056;241;28758;-72